createdAt,value
2022-08-17T00:00:49.296Z,97509.02
2022-08-17T00:04:20.844Z,97504.37
2022-08-17T00:08:15.916Z,97505.95
2022-08-17T00:11:42.402Z,97507.63
2022-08-17T00:15:44.201Z,97504.17
2022-08-17T00:19:09.475Z,97505.33
2022-08-17T00:22:43.046Z,97507.63
2022-08-17T00:26:44.462Z,97511.17
2022-08-17T00:30:06.146Z,97506.81
2022-08-17T00:33:42.447Z,97506.34
2022-08-17T00:37:36.081Z,97507.22
2022-08-17T00:41:01.326Z,97508.39
2022-08-17T00:44:34.693Z,97505.08
2022-08-17T00:48:28.845Z,97503.88
2022-08-17T00:52:04.609Z,97506.90
2022-08-17T00:55:34.490Z,97505.77
2022-08-17T00:59:34.174Z,97507.77
2022-08-17T01:03:00.425Z,97502.53
2022-08-17T01:06:33.588Z,97497.69
2022-08-17T01:10:58.158Z,97505.30
2022-08-17T01:13:54.133Z,97505.13
2022-08-17T01:17:30.690Z,97511.16
2022-08-17T01:21:15.241Z,97504.84
2022-08-17T01:24:48.687Z,97506.17
2022-08-17T01:28:52.438Z,97512.73
2022-08-17T01:32:07.092Z,97516.81
2022-08-17T01:36:01.474Z,97523.30
2022-08-17T01:39:34.520Z,97526.30
2022-08-17T01:43:07.407Z,97526.16
2022-08-17T01:46:37.461Z,97529.44
2022-08-17T01:50:19.367Z,97532.95
2022-08-17T01:54:13.452Z,97532.97
2022-08-17T01:57:35.237Z,97532.10
2022-08-17T02:01:34.129Z,97536.23
2022-08-17T02:04:55.684Z,97540.81
2022-08-17T02:08:39.244Z,97543.31
2022-08-17T02:12:37.733Z,97540.23
2022-08-17T02:15:52.035Z,97536.67
2022-08-17T02:19:31.321Z,97531.77
2022-08-17T02:23:27.933Z,97526.12
2022-08-17T02:26:49.427Z,97522.04
2022-08-17T02:31:00.194Z,97523.93
2022-08-17T02:34:25.419Z,97524.09
2022-08-17T02:38:01.869Z,97526.33
2022-08-17T02:41:39.545Z,97524.60
2022-08-17T02:45:19.146Z,97522.28
2022-08-17T02:48:51.354Z,97528.85
2022-08-17T02:52:43.101Z,97533.17
2022-08-17T02:56:06.939Z,97535.33
2022-08-17T02:59:48.346Z,97534.70
2022-08-17T03:03:20.221Z,97531.82
2022-08-17T03:06:57.011Z,97527.98
2022-08-17T03:10:34.337Z,97527.62
2022-08-17T03:14:31.636Z,97533.73
2022-08-17T03:17:54.887Z,97533.55
2022-08-17T03:21:30.291Z,97530.11
2022-08-17T03:25:10.778Z,97526.64
2022-08-17T03:28:45.476Z,97527.34
2022-08-17T03:32:20.937Z,97530.63
2022-08-17T03:36:16.817Z,97537.37
2022-08-17T03:39:39.027Z,97544.04
2022-08-17T03:43:16.225Z,97546.00
2022-08-17T03:47:10.715Z,97541.88
2022-08-17T03:51:14.662Z,97541.45
2022-08-17T03:54:55.726Z,97546.05
2022-08-17T03:58:36.946Z,97552.64
2022-08-17T04:02:26.871Z,97556.08
2022-08-17T04:05:51.168Z,97557.48
2022-08-17T04:09:28.066Z,97557.02
2022-08-17T04:13:03.210Z,97563.54
2022-08-17T04:16:57.778Z,97560.98
2022-08-17T04:20:21.304Z,97568.94
2022-08-17T04:23:58.090Z,97563.61
2022-08-17T04:27:32.862Z,97569.59
2022-08-17T04:31:12.129Z,97567.86
2022-08-17T04:35:05.511Z,97577.28
2022-08-17T04:38:46.211Z,97574.65
2022-08-17T04:42:26.370Z,97577.55
2022-08-17T04:45:57.386Z,97581.92
2022-08-17T04:49:24.560Z,97584.24
2022-08-17T04:53:21.162Z,97583.97
2022-08-17T04:56:43.063Z,97582.42
2022-08-17T05:00:20.463Z,97581.40
2022-08-17T05:04:34.559Z,97580.32
2022-08-17T05:08:02.384Z,97583.20
2022-08-17T05:11:35.435Z,97586.58
2022-08-17T05:15:33.210Z,97587.02
2022-08-17T05:19:16.162Z,97581.84
2022-08-17T05:22:51.420Z,97583.83
2022-08-17T05:26:24.815Z,97585.57
2022-08-17T05:29:51.206Z,97587.25
2022-08-17T05:33:31.232Z,97589.91
2022-08-17T05:37:04.592Z,97596.13
2022-08-17T05:40:42.920Z,97596.88
2022-08-17T05:44:37.054Z,97593.74
2022-08-17T05:47:59.355Z,97596.07
2022-08-17T05:51:52.451Z,97599.05
2022-08-17T05:55:35.033Z,97599.71
2022-08-17T05:59:22.612Z,97599.99
2022-08-17T06:03:22.485Z,97599.55
2022-08-17T06:06:49.937Z,97602.67
2022-08-17T06:10:47.124Z,97606.16
2022-08-17T06:14:25.555Z,97604.43
2022-08-17T06:17:59.360Z,97606.31
2022-08-17T06:21:32.146Z,97609.80
2022-08-17T06:25:14.132Z,97610.34
2022-08-17T06:28:51.285Z,97605.91
2022-08-17T06:32:17.271Z,97604.17
2022-08-17T06:36:26.445Z,97602.73
2022-08-17T06:40:29.135Z,97604.70
2022-08-17T06:44:10.123Z,97608.75
2022-08-17T06:48:12.418Z,97614.58
2022-08-17T06:52:01.236Z,97614.47
2022-08-17T06:55:38.170Z,97615.98
2022-08-17T06:59:26.340Z,97610.70
2022-08-17T07:03:40.914Z,97617.36
2022-08-17T07:07:26.931Z,97623.23
2022-08-17T07:10:55.745Z,97622.52
2022-08-17T07:14:52.412Z,97622.45
2022-08-17T07:18:13.939Z,97621.34
2022-08-17T07:22:24.802Z,97622.96
2022-08-17T07:26:08.443Z,97626.15
2022-08-17T07:29:32.803Z,97620.65
2022-08-17T07:33:29.411Z,97624.98
2022-08-17T07:37:05.442Z,97630.16
2022-08-17T07:40:33.460Z,97632.00
2022-08-17T07:44:12.610Z,97627.20
2022-08-17T07:48:09.394Z,97622.22
2022-08-17T07:51:39.637Z,97621.67
2022-08-17T07:55:27.935Z,97624.05
2022-08-17T07:59:07.212Z,97622.84
2022-08-17T08:03:01.548Z,97623.12
2022-08-17T08:06:54.687Z,97626.86
2022-08-17T08:10:31.242Z,97629.78
2022-08-17T08:13:53.276Z,97632.41
2022-08-17T08:17:36.475Z,97630.90
2022-08-17T08:21:08.883Z,97625.48
2022-08-17T08:24:43.625Z,97630.23
2022-08-17T08:28:47.078Z,97633.15
2022-08-17T08:33:03.544Z,97632.89
2022-08-17T08:37:16.584Z,97635.70
2022-08-17T08:41:21.891Z,97637.00
2022-08-17T08:45:08.914Z,97639.50
2022-08-17T08:49:14.470Z,97634.93
2022-08-17T08:52:58.550Z,97637.27
2022-08-17T08:57:24.302Z,97631.35
2022-08-17T09:00:53.349Z,97634.08
2022-08-17T09:04:27.311Z,97631.73
2022-08-17T09:08:28.985Z,97635.00
2022-08-17T09:12:17.094Z,97637.23
2022-08-17T09:15:57.373Z,97631.61
2022-08-17T09:20:05.353Z,97626.21
2022-08-17T09:24:14.686Z,97630.17
2022-08-17T09:28:10.016Z,97630.58
2022-08-17T09:31:48.909Z,97629.20
2022-08-17T09:35:44.235Z,97631.52
2022-08-17T09:39:39.549Z,97639.88
2022-08-17T09:43:42.448Z,97642.23
2022-08-17T09:47:30.694Z,97643.74
2022-08-17T09:51:52.206Z,97648.63
2022-08-17T09:55:14.143Z,97645.33
2022-08-17T09:59:05.630Z,97642.88
2022-08-17T10:02:50.511Z,97639.27
2022-08-17T10:06:30.536Z,97639.02
2022-08-17T10:10:29.099Z,97636.34
2022-08-17T10:14:02.027Z,97633.70
2022-08-17T10:18:25.641Z,97626.42
2022-08-17T10:22:35.363Z,97630.74
2022-08-17T10:26:21.302Z,97632.45
2022-08-17T10:30:07.686Z,97632.92
2022-08-17T10:33:50.979Z,97630.97
2022-08-17T10:37:21.540Z,97636.23
2022-08-17T10:41:40.565Z,97639.09
2022-08-17T10:45:15.535Z,97639.70
2022-08-17T10:48:40.188Z,97637.48
2022-08-17T10:52:19.179Z,97639.19
2022-08-17T10:56:11.978Z,97637.36
2022-08-17T10:59:54.744Z,97637.35
2022-08-17T11:03:21.282Z,97634.93
2022-08-17T11:07:28.002Z,97639.50
2022-08-17T11:11:35.693Z,97639.43
2022-08-17T11:15:30.848Z,97642.36
2022-08-17T11:19:36.658Z,97637.67
2022-08-17T11:23:26.377Z,97632.87
2022-08-17T11:27:12.263Z,97633.16
2022-08-17T11:30:59.381Z,97636.59
2022-08-17T11:34:43.989Z,97637.66
2022-08-17T11:38:45.523Z,97633.19
2022-08-17T11:42:45.885Z,97637.77
2022-08-17T11:46:54.089Z,97645.00
2022-08-17T11:51:25.039Z,97642.19
2022-08-17T11:54:48.149Z,97637.41
2022-08-17T11:58:44.645Z,97632.80
2022-08-17T12:02:29.647Z,97626.61
2022-08-17T12:06:30.309Z,97621.80
2022-08-17T12:10:15.528Z,97613.36
2022-08-17T12:13:49.937Z,97613.96
2022-08-17T12:17:40.614Z,97615.00
2022-08-17T12:21:31.438Z,97613.59
2022-08-17T12:25:00.219Z,97614.00
2022-08-17T12:28:34.712Z,97616.21
2022-08-17T12:32:20.133Z,97613.88
2022-08-17T12:35:45.204Z,97606.80
2022-08-17T12:39:50.815Z,97606.59
2022-08-17T12:43:26.997Z,97604.63
2022-08-17T12:47:00.885Z,97599.63
2022-08-17T12:50:30.259Z,97601.60
2022-08-17T12:54:53.598Z,97601.30
2022-08-17T12:58:22.732Z,97601.77
2022-08-17T13:01:54.140Z,97606.19
2022-08-17T13:05:37.156Z,97605.48
2022-08-17T13:09:23.025Z,97603.31
2022-08-17T13:13:03.856Z,97603.23
2022-08-17T13:16:35.601Z,97604.66
2022-08-17T13:20:15.203Z,97594.58
2022-08-17T13:24:02.018Z,97598.09
2022-08-17T13:27:52.974Z,97599.91
2022-08-17T13:31:28.401Z,97595.46
2022-08-17T13:35:15.037Z,97598.85
2022-08-17T13:38:47.209Z,97598.27
2022-08-17T13:42:52.157Z,97595.31
2022-08-17T13:46:21.916Z,97591.91
2022-08-17T13:49:52.401Z,97598.27
2022-08-17T13:53:50.487Z,97601.11
2022-08-17T13:57:13.132Z,97601.13
2022-08-17T14:00:51.666Z,97602.30
2022-08-17T14:04:31.710Z,97602.07
2022-08-17T14:08:22.240Z,97598.84
2022-08-17T14:12:05.917Z,97594.16
2022-08-17T14:15:56.180Z,97600.88
2022-08-17T14:19:29.238Z,97599.22
2022-08-17T14:23:10.477Z,97598.73
2022-08-17T14:26:52.423Z,97593.77
2022-08-17T14:30:14.588Z,97588.73
2022-08-17T14:34:10.106Z,97591.95
2022-08-17T14:37:32.148Z,97598.27
2022-08-17T14:41:27.129Z,97599.94
2022-08-17T14:44:49.072Z,97600.73
2022-08-17T14:48:25.769Z,97600.17
2022-08-17T14:52:21.357Z,97604.52
2022-08-17T14:55:47.073Z,97604.95
2022-08-17T14:59:38.666Z,97606.71
2022-08-17T15:03:19.545Z,97606.27
2022-08-17T15:06:41.186Z,97611.26
2022-08-17T15:10:18.422Z,97610.38
2022-08-17T15:13:55.311Z,97598.20
2022-08-17T15:17:44.801Z,97596.02
2022-08-17T15:21:16.053Z,97602.06
2022-08-17T15:24:53.870Z,97602.80
2022-08-17T15:28:29.493Z,97599.52
2022-08-17T15:32:32.227Z,97602.04
2022-08-17T15:36:12.458Z,97600.38
2022-08-17T15:39:53.073Z,97598.03
2022-08-17T15:43:27.098Z,97598.39
2022-08-17T15:46:51.992Z,97599.77
2022-08-17T15:50:27.994Z,97592.93
2022-08-17T15:54:19.171Z,97591.30
2022-08-17T15:58:03.846Z,97589.27
2022-08-17T16:03:13.078Z,97586.36
2022-08-17T16:05:17.518Z,97587.23
2022-08-17T16:09:06.235Z,97585.69
2022-08-17T16:12:48.691Z,97586.44
2022-08-17T16:16:11.170Z,97586.11
2022-08-17T16:19:48.099Z,97584.98
2022-08-17T16:23:26.810Z,97585.79
2022-08-17T16:27:01.326Z,97585.58
2022-08-17T16:30:57.942Z,97587.48
2022-08-17T16:34:42.799Z,97592.42
2022-08-17T16:38:23.332Z,97596.46
2022-08-17T16:42:05.309Z,97596.58
2022-08-17T16:45:34.615Z,97595.91
2022-08-17T16:49:27.577Z,97598.98
2022-08-17T16:53:17.861Z,97594.52
2022-08-17T16:56:59.407Z,97597.96
2022-08-17T17:00:23.955Z,97607.05
2022-08-17T17:04:18.636Z,97609.98
2022-08-17T17:07:52.152Z,97618.28
2022-08-17T17:11:43.157Z,97618.99
2022-08-17T17:15:05.896Z,97623.27
2022-08-17T17:18:48.247Z,97623.55
2022-08-17T17:22:28.463Z,97626.64
2022-08-17T17:26:08.058Z,97634.81
2022-08-17T17:29:49.925Z,97635.98
2022-08-17T17:33:42.468Z,97635.41
2022-08-17T17:37:12.276Z,97637.66
2022-08-17T17:40:44.951Z,97639.59
2022-08-17T17:44:24.703Z,97645.73
2022-08-17T17:47:55.629Z,97645.10
2022-08-17T17:52:10.816Z,97654.30
2022-08-17T17:55:43.346Z,97656.70
2022-08-17T17:59:25.250Z,97661.59
2022-08-17T18:03:04.612Z,97661.61
2022-08-17T18:06:29.707Z,97668.52
2022-08-17T18:10:32.658Z,97665.25
2022-08-17T18:14:14.885Z,97667.45
2022-08-17T18:17:38.090Z,97670.06
2022-08-17T18:21:19.552Z,97670.22
2022-08-17T18:24:57.334Z,97673.07
2022-08-17T18:28:33.189Z,97673.53
2022-08-17T18:32:23.017Z,97675.79
2022-08-17T18:35:59.266Z,97673.82
2022-08-17T18:39:42.553Z,97675.40
2022-08-17T18:43:14.384Z,97677.45
2022-08-17T18:46:45.026Z,97685.36
2022-08-17T18:50:26.394Z,97688.67
2022-08-17T18:54:08.154Z,97684.73
2022-08-17T18:57:45.871Z,97687.25
2022-08-17T19:01:21.031Z,97693.82
2022-08-17T19:04:59.380Z,97697.36
2022-08-17T19:08:29.371Z,97703.40
2022-08-17T19:12:39.087Z,97702.88
2022-08-17T19:16:37.345Z,97694.48
2022-08-17T19:20:23.465Z,97693.55
2022-08-17T19:24:09.690Z,97694.97
2022-08-17T19:27:57.388Z,97696.82
2022-08-17T19:31:40.292Z,97700.84
2022-08-17T19:35:03.379Z,97706.81
2022-08-17T19:39:38.241Z,97711.45
2022-08-17T19:43:32.961Z,97720.27
2022-08-17T19:47:11.108Z,97716.49
2022-08-17T19:50:45.879Z,97716.41
2022-08-17T19:54:26.569Z,97719.86
2022-08-17T19:58:00.150Z,97728.49
2022-08-17T20:02:01.308Z,97729.02
2022-08-17T20:06:12.111Z,97719.77
2022-08-17T20:09:39.478Z,97715.40
2022-08-17T20:13:33.334Z,97711.16
2022-08-17T20:17:16.010Z,97709.35
2022-08-17T20:20:48.252Z,97708.46
2022-08-17T20:24:43.005Z,97707.06
2022-08-17T20:28:17.506Z,97704.42
2022-08-17T20:31:47.687Z,97701.91
2022-08-17T20:35:28.244Z,97705.27
2022-08-17T20:38:58.981Z,97705.75
2022-08-17T20:42:33.938Z,97701.61
2022-08-17T20:46:34.269Z,97701.01
2022-08-17T20:50:10.703Z,97699.30
2022-08-17T20:53:53.468Z,97699.58
2022-08-17T20:57:34.480Z,97691.52
2022-08-17T21:00:58.979Z,97685.98
2022-08-17T21:04:49.905Z,97690.63
2022-08-17T21:08:13.122Z,97693.89
2022-08-17T21:12:04.166Z,97688.73
2022-08-17T21:15:35.901Z,97687.95
2022-08-17T21:20:07.666Z,97688.36
2022-08-17T21:23:35.325Z,97690.21
2022-08-17T21:27:29.160Z,97695.35
2022-08-17T21:31:29.438Z,97702.39
2022-08-17T21:35:19.274Z,97701.73
2022-08-17T21:38:42.311Z,97700.20
2022-08-17T21:42:25.817Z,97700.07
2022-08-17T21:45:59.775Z,97701.86
2022-08-17T21:49:31.453Z,97700.77
2022-08-17T21:53:47.560Z,97704.66
2022-08-17T21:57:17.397Z,97701.23
2022-08-17T22:00:45.769Z,97697.72
2022-08-17T22:04:42.267Z,97695.67
2022-08-17T22:08:16.421Z,97690.80
2022-08-17T22:12:02.360Z,97686.17
2022-08-17T22:15:25.028Z,97683.04
2022-08-17T22:19:01.970Z,97686.01
2022-08-17T22:23:19.298Z,97676.05
2022-08-17T22:27:02.823Z,97670.60
2022-08-17T22:30:33.244Z,97669.41
2022-08-17T22:34:21.046Z,97668.34
2022-08-17T22:37:42.629Z,97673.01
2022-08-17T22:41:54.681Z,97669.73
2022-08-17T22:45:17.093Z,97668.14
2022-08-17T22:49:22.745Z,97672.56
2022-08-17T22:53:03.758Z,97660.73
2022-08-17T22:56:45.386Z,97649.36
2022-08-17T23:00:47.058Z,97646.44
2022-08-17T23:04:38.877Z,97646.14
2022-08-17T23:08:00.116Z,97650.70
2022-08-17T23:11:48.827Z,97655.95
2022-08-17T23:15:17.750Z,97664.41
2022-08-17T23:18:51.675Z,97671.92
2022-08-17T23:22:52.507Z,97680.02
2022-08-17T23:26:14.920Z,97690.39
2022-08-17T23:29:51.912Z,97697.00
2022-08-17T23:33:48.968Z,97695.29
2022-08-17T23:37:29.165Z,97697.95
2022-08-17T23:41:15.015Z,97696.85
2022-08-17T23:44:38.025Z,97695.52
2022-08-17T23:48:13.772Z,97696.02
2022-08-17T23:51:53.734Z,97707.15
2022-08-17T23:55:34.595Z,97712.63
2022-08-17T23:59:04.155Z,97709.02
